sensor_id;sensor_type;location;lat;lon;timestamp;P1;durP1;ratioP1;P2;durP2;ratioP2
43248;SDS011;29216;51.248;6.808;2023-06-14T00:00:41;6.28;;;4.80;;
43248;SDS011;29216;51.248;6.808;2023-06-14T00:03:08;7.60;;;5.38;;
43248;SDS011;29216;51.248;6.808;2023-06-14T00:05:35;7.07;;;4.90;;
43248;SDS011;29216;51.248;6.808;2023-06-14T00:08:08;7.07;;;5.05;;
43248;SDS011;29216;51.248;6.808;2023-06-14T00:10:35;8.27;;;4.80;;
43248;SDS011;29216;51.248;6.808;2023-06-14T00:13:02;8.32;;;5.80;;
43248;SDS011;29216;51.248;6.808;2023-06-14T00:15:29;5.80;;;4.80;;
43248;SDS011;29216;51.248;6.808;2023-06-14T00:17:55;7.10;;;4.88;;
43248;SDS011;29216;51.248;6.808;2023-06-14T00:20:25;6.25;;;4.68;;
43248;SDS011;29216;51.248;6.808;2023-06-14T00:22:52;5.82;;;4.70;;
43248;SDS011;29216;51.248;6.808;2023-06-14T00:25:18;7.30;;;4.63;;
43248;SDS011;29216;51.248;6.808;2023-06-14T00:27:45;8.95;;;5.15;;
43248;SDS011;29216;51.248;6.808;2023-06-14T00:30:11;9.93;;;5.20;;
43248;SDS011;29216;51.248;6.808;2023-06-14T00:32:37;6.90;;;4.75;;
43248;SDS011;29216;51.248;6.808;2023-06-14T00:35:03;7.70;;;5.28;;
43248;SDS011;29216;51.248;6.808;2023-06-14T00:37:29;8.38;;;4.85;;
43248;SDS011;29216;51.248;6.808;2023-06-14T00:39:55;6.20;;;4.97;;
43248;SDS011;29216;51.248;6.808;2023-06-14T00:42:25;7.75;;;5.20;;
43248;SDS011;29216;51.248;6.808;2023-06-14T00:44:51;5.82;;;4.72;;
43248;SDS011;29216;51.248;6.808;2023-06-14T00:47:17;7.05;;;5.00;;
43248;SDS011;29216;51.248;6.808;2023-06-14T00:49:45;8.45;;;4.63;;
43248;SDS011;29216;51.248;6.808;2023-06-14T00:52:11;6.53;;;5.00;;
43248;SDS011;29216;51.248;6.808;2023-06-14T00:54:37;7.95;;;4.97;;
43248;SDS011;29216;51.248;6.808;2023-06-14T00:57:04;6.28;;;4.80;;
43248;SDS011;29216;51.248;6.808;2023-06-14T00:59:30;11.77;;;5.60;;
43248;SDS011;29216;51.248;6.808;2023-06-14T01:01:57;8.18;;;5.07;;
43248;SDS011;29216;51.248;6.808;2023-06-14T01:04:23;7.10;;;5.57;;
43248;SDS011;29216;51.248;6.808;2023-06-14T01:06:59;7.00;;;4.95;;
43248;SDS011;29216;51.248;6.808;2023-06-14T01:09:42;8.95;;;5.45;;
43248;SDS011;29216;51.248;6.808;2023-06-14T01:12:14;7.07;;;4.72;;
43248;SDS011;29216;51.248;6.808;2023-06-14T01:14:41;8.90;;;5.25;;
43248;SDS011;29216;51.248;6.808;2023-06-14T01:17:07;7.80;;;5.22;;
43248;SDS011;29216;51.248;6.808;2023-06-14T01:19:41;8.15;;;5.00;;
43248;SDS011;29216;51.248;6.808;2023-06-14T01:22:07;6.40;;;5.05;;
43248;SDS011;29216;51.248;6.808;2023-06-14T01:24:34;6.60;;;4.63;;
43248;SDS011;29216;51.248;6.808;2023-06-14T01:27:00;7.18;;;5.28;;
43248;SDS011;29216;51.248;6.808;2023-06-14T01:29:27;8.45;;;5.22;;
43248;SDS011;29216;51.248;6.808;2023-06-14T01:31:57;7.30;;;5.03;;
43248;SDS011;29216;51.248;6.808;2023-06-14T01:34:23;6.00;;;4.82;;
43248;SDS011;29216;51.248;6.808;2023-06-14T01:36:49;7.32;;;4.70;;
43248;SDS011;29216;51.248;6.808;2023-06-14T01:39:16;8.73;;;4.78;;
43248;SDS011;29216;51.248;6.808;2023-06-14T01:41:43;7.30;;;5.20;;
43248;SDS011;29216;51.248;6.808;2023-06-14T01:44:10;8.15;;;5.13;;
43248;SDS011;29216;51.248;6.808;2023-06-14T01:46:37;8.35;;;5.47;;
43248;SDS011;29216;51.248;6.808;2023-06-14T01:49:03;5.95;;;4.97;;
43248;SDS011;29216;51.248;6.808;2023-06-14T01:51:29;9.27;;;5.10;;
43248;SDS011;29216;51.248;6.808;2023-06-14T01:53:56;6.55;;;5.22;;
43248;SDS011;29216;51.248;6.808;2023-06-14T01:56:22;6.28;;;5.10;;
43248;SDS011;29216;51.248;6.808;2023-06-14T01:58:48;7.05;;;4.93;;
43248;SDS011;29216;51.248;6.808;2023-06-14T02:01:14;5.68;;;5.03;;
43248;SDS011;29216;51.248;6.808;2023-06-14T02:03:41;7.22;;;4.93;;
43248;SDS011;29216;51.248;6.808;2023-06-14T02:06:09;9.02;;;5.57;;
43248;SDS011;29216;51.248;6.808;2023-06-14T02:08:35;5.85;;;4.70;;
43248;SDS011;29216;51.248;6.808;2023-06-14T02:11:01;7.07;;;5.38;;
43248;SDS011;29216;51.248;6.808;2023-06-14T02:13:27;5.25;;;4.68;;
43248;SDS011;29216;51.248;6.808;2023-06-14T02:15:53;7.50;;;5.47;;
43248;SDS011;29216;51.248;6.808;2023-06-14T02:18:20;6.65;;;5.32;;
43248;SDS011;29216;51.248;6.808;2023-06-14T02:20:46;8.48;;;4.90;;
43248;SDS011;29216;51.248;6.808;2023-06-14T02:23:12;9.07;;;5.18;;
43248;SDS011;29216;51.248;6.808;2023-06-14T02:25:38;7.22;;;5.30;;
43248;SDS011;29216;51.248;6.808;2023-06-14T02:28:05;7.43;;;5.45;;
43248;SDS011;29216;51.248;6.808;2023-06-14T02:30:31;9.07;;;5.10;;
43248;SDS011;29216;51.248;6.808;2023-06-14T02:32:57;8.45;;;4.90;;
43248;SDS011;29216;51.248;6.808;2023-06-14T02:35:24;5.45;;;4.68;;
43248;SDS011;29216;51.248;6.808;2023-06-14T02:37:51;8.00;;;4.80;;
43248;SDS011;29216;51.248;6.808;2023-06-14T02:40:18;7.43;;;5.38;;
43248;SDS011;29216;51.248;6.808;2023-06-14T02:42:44;6.32;;;4.60;;
43248;SDS011;29216;51.248;6.808;2023-06-14T02:45:10;9.85;;;5.35;;
43248;SDS011;29216;51.248;6.808;2023-06-14T02:47:36;11.73;;;5.10;;
43248;SDS011;29216;51.248;6.808;2023-06-14T02:50:02;9.77;;;5.35;;
43248;SDS011;29216;51.248;6.808;2023-06-14T02:52:28;7.40;;;4.80;;
43248;SDS011;29216;51.248;6.808;2023-06-14T02:54:54;7.43;;;4.97;;
43248;SDS011;29216;51.248;6.808;2023-06-14T02:57:20;8.10;;;4.80;;
43248;SDS011;29216;51.248;6.808;2023-06-14T02:59:46;5.07;;;4.40;;
43248;SDS011;29216;51.248;6.808;2023-06-14T03:02:12;9.30;;;5.50;;
43248;SDS011;29216;51.248;6.808;2023-06-14T03:04:38;7.25;;;5.10;;
43248;SDS011;29216;51.248;6.808;2023-06-14T03:07:05;8.38;;;5.18;;
43248;SDS011;29216;51.248;6.808;2023-06-14T03:09:37;6.43;;;4.78;;
43248;SDS011;29216;51.248;6.808;2023-06-14T03:12:04;7.18;;;4.70;;
43248;SDS011;29216;51.248;6.808;2023-06-14T03:14:32;7.57;;;5.07;;
43248;SDS011;29216;51.248;6.808;2023-06-14T03:16:58;6.60;;;4.93;;
43248;SDS011;29216;51.248;6.808;2023-06-14T03:19:25;7.75;;;4.90;;
43248;SDS011;29216;51.248;6.808;2023-06-14T03:21:51;8.20;;;4.68;;
43248;SDS011;29216;51.248;6.808;2023-06-14T03:24:18;6.25;;;4.72;;
43248;SDS011;29216;51.248;6.808;2023-06-14T03:26:45;5.85;;;4.63;;
43248;SDS011;29216;51.248;6.808;2023-06-14T03:29:11;7.28;;;5.30;;
43248;SDS011;29216;51.248;6.808;2023-06-14T03:31:41;7.45;;;4.68;;
43248;SDS011;29216;51.248;6.808;2023-06-14T03:34:21;6.15;;;5.00;;
43248;SDS011;29216;51.248;6.808;2023-06-14T03:36:47;7.88;;;5.18;;
43248;SDS011;29216;51.248;6.808;2023-06-14T03:39:14;6.43;;;4.45;;
43248;SDS011;29216;51.248;6.808;2023-06-14T03:41:40;8.90;;;5.13;;
43248;SDS011;29216;51.248;6.808;2023-06-14T03:44:06;6.55;;;4.70;;
43248;SDS011;29216;51.248;6.808;2023-06-14T03:46:32;7.00;;;4.60;;
43248;SDS011;29216;51.248;6.808;2023-06-14T03:48:58;6.28;;;4.60;;
43248;SDS011;29216;51.248;6.808;2023-06-14T03:51:25;6.60;;;4.35;;
43248;SDS011;29216;51.248;6.808;2023-06-14T03:53:51;5.43;;;4.30;;
43248;SDS011;29216;51.248;6.808;2023-06-14T03:56:17;6.05;;;4.60;;
43248;SDS011;29216;51.248;6.808;2023-06-14T03:58:43;6.90;;;4.65;;
43248;SDS011;29216;51.248;6.808;2023-06-14T04:01:09;6.35;;;4.78;;
43248;SDS011;29216;51.248;6.808;2023-06-14T04:03:37;11.60;;;4.72;;
43248;SDS011;29216;51.248;6.808;2023-06-14T04:06:03;10.80;;;4.93;;
43248;SDS011;29216;51.248;6.808;2023-06-14T04:08:30;8.68;;;4.55;;
43248;SDS011;29216;51.248;6.808;2023-06-14T04:10:56;6.55;;;4.65;;
43248;SDS011;29216;51.248;6.808;2023-06-14T04:13:22;8.68;;;4.90;;
43248;SDS011;29216;51.248;6.808;2023-06-14T04:15:48;8.50;;;4.88;;
43248;SDS011;29216;51.248;6.808;2023-06-14T04:18:14;9.98;;;6.05;;
43248;SDS011;29216;51.248;6.808;2023-06-14T04:20:40;11.60;;;4.95;;
43248;SDS011;29216;51.248;6.808;2023-06-14T04:23:16;9.82;;;5.50;;
43248;SDS011;29216;51.248;6.808;2023-06-14T04:25:43;7.22;;;4.93;;
43248;SDS011;29216;51.248;6.808;2023-06-14T04:28:12;10.32;;;4.88;;
43248;SDS011;29216;51.248;6.808;2023-06-14T04:30:42;8.07;;;5.03;;
43248;SDS011;29216;51.248;6.808;2023-06-14T04:33:09;8.88;;;5.00;;
43248;SDS011;29216;51.248;6.808;2023-06-14T04:35:36;8.73;;;4.97;;
43248;SDS011;29216;51.248;6.808;2023-06-14T04:38:05;9.32;;;5.15;;
43248;SDS011;29216;51.248;6.808;2023-06-14T04:40:34;7.90;;;5.35;;
43248;SDS011;29216;51.248;6.808;2023-06-14T04:43:01;8.25;;;5.05;;
43248;SDS011;29216;51.248;6.808;2023-06-14T04:45:31;8.48;;;4.90;;
43248;SDS011;29216;51.248;6.808;2023-06-14T04:48:00;8.68;;;5.10;;
43248;SDS011;29216;51.248;6.808;2023-06-14T04:50:26;5.85;;;4.95;;
43248;SDS011;29216;51.248;6.808;2023-06-14T04:52:54;6.25;;;4.40;;
43248;SDS011;29216;51.248;6.808;2023-06-14T04:55:21;6.95;;;4.90;;
43248;SDS011;29216;51.248;6.808;2023-06-14T04:57:46;6.85;;;4.70;;
43248;SDS011;29216;51.248;6.808;2023-06-14T05:00:14;8.57;;;4.60;;
43248;SDS011;29216;51.248;6.808;2023-06-14T05:02:40;7.47;;;4.55;;
43248;SDS011;29216;51.248;6.808;2023-06-14T05:05:06;6.10;;;4.28;;
43248;SDS011;29216;51.248;6.808;2023-06-14T05:07:32;6.93;;;4.25;;
43248;SDS011;29216;51.248;6.808;2023-06-14T05:10:01;9.55;;;4.40;;
43248;SDS011;29216;51.248;6.808;2023-06-14T05:12:28;6.00;;;4.18;;
43248;SDS011;29216;51.248;6.808;2023-06-14T05:14:54;8.07;;;4.75;;
43248;SDS011;29216;51.248;6.808;2023-06-14T05:17:20;8.50;;;4.38;;
43248;SDS011;29216;51.248;6.808;2023-06-14T05:19:47;6.35;;;4.20;;
43248;SDS011;29216;51.248;6.808;2023-06-14T05:22:13;5.18;;;3.80;;
43248;SDS011;29216;51.248;6.808;2023-06-14T05:24:39;5.18;;;4.20;;
43248;SDS011;29216;51.248;6.808;2023-06-14T05:27:06;4.93;;;4.18;;
43248;SDS011;29216;51.248;6.808;2023-06-14T05:29:33;5.88;;;3.97;;
43248;SDS011;29216;51.248;6.808;2023-06-14T05:31:59;9.90;;;4.03;;
43248;SDS011;29216;51.248;6.808;2023-06-14T05:34:25;9.63;;;4.15;;
43248;SDS011;29216;51.248;6.808;2023-06-14T05:36:51;8.93;;;3.97;;
43248;SDS011;29216;51.248;6.808;2023-06-14T05:39:17;7.88;;;4.40;;
43248;SDS011;29216;51.248;6.808;2023-06-14T05:41:43;7.32;;;3.80;;
43248;SDS011;29216;51.248;6.808;2023-06-14T05:44:09;8.45;;;3.78;;
43248;SDS011;29216;51.248;6.808;2023-06-14T05:46:34;9.05;;;3.90;;
43248;SDS011;29216;51.248;6.808;2023-06-14T05:49:00;8.70;;;4.00;;
43248;SDS011;29216;51.248;6.808;2023-06-14T05:51:27;7.28;;;3.83;;
43248;SDS011;29216;51.248;6.808;2023-06-14T05:53:53;8.38;;;3.60;;
43248;SDS011;29216;51.248;6.808;2023-06-14T05:56:19;6.32;;;4.10;;
43248;SDS011;29216;51.248;6.808;2023-06-14T05:58:46;7.80;;;3.58;;
43248;SDS011;29216;51.248;6.808;2023-06-14T06:01:12;8.32;;;3.53;;
43248;SDS011;29216;51.248;6.808;2023-06-14T06:03:39;5.18;;;4.13;;
43248;SDS011;29216;51.248;6.808;2023-06-14T06:06:05;11.43;;;3.85;;
43248;SDS011;29216;51.248;6.808;2023-06-14T06:08:31;5.65;;;3.88;;
43248;SDS011;29216;51.248;6.808;2023-06-14T06:10:57;5.38;;;3.47;;
43248;SDS011;29216;51.248;6.808;2023-06-14T06:13:24;9.48;;;3.63;;
43248;SDS011;29216;51.248;6.808;2023-06-14T06:15:50;9.10;;;3.97;;
43248;SDS011;29216;51.248;6.808;2023-06-14T06:18:17;5.35;;;3.35;;
43248;SDS011;29216;51.248;6.808;2023-06-14T06:20:43;6.28;;;3.67;;
43248;SDS011;29216;51.248;6.808;2023-06-14T06:23:09;5.18;;;3.42;;
43248;SDS011;29216;51.248;6.808;2023-06-14T06:25:35;17.17;;;4.07;;
43248;SDS011;29216;51.248;6.808;2023-06-14T06:28:02;5.72;;;3.95;;
43248;SDS011;29216;51.248;6.808;2023-06-14T06:30:28;7.28;;;3.50;;
43248;SDS011;29216;51.248;6.808;2023-06-14T06:32:54;4.63;;;3.30;;
43248;SDS011;29216;51.248;6.808;2023-06-14T06:35:20;7.03;;;3.45;;
43248;SDS011;29216;51.248;6.808;2023-06-14T06:37:46;6.85;;;3.50;;
43248;SDS011;29216;51.248;6.808;2023-06-14T06:40:12;4.68;;;3.00;;
43248;SDS011;29216;51.248;6.808;2023-06-14T06:42:38;4.65;;;3.03;;
43248;SDS011;29216;51.248;6.808;2023-06-14T06:45:05;3.72;;;2.95;;
43248;SDS011;29216;51.248;6.808;2023-06-14T06:47:31;3.70;;;3.08;;
43248;SDS011;29216;51.248;6.808;2023-06-14T06:49:57;4.95;;;2.95;;
43248;SDS011;29216;51.248;6.808;2023-06-14T06:52:23;5.57;;;2.95;;
43248;SDS011;29216;51.248;6.808;2023-06-14T06:54:49;5.22;;;2.90;;
43248;SDS011;29216;51.248;6.808;2023-06-14T06:57:19;9.75;;;3.03;;
43248;SDS011;29216;51.248;6.808;2023-06-14T06:59:47;4.63;;;3.22;;
43248;SDS011;29216;51.248;6.808;2023-06-14T07:02:13;4.40;;;2.55;;
43248;SDS011;29216;51.248;6.808;2023-06-14T07:04:39;3.45;;;2.30;;
43248;SDS011;29216;51.248;6.808;2023-06-14T07:07:06;4.43;;;2.60;;
43248;SDS011;29216;51.248;6.808;2023-06-14T07:09:32;3.13;;;2.65;;
43248;SDS011;29216;51.248;6.808;2023-06-14T07:11:58;4.30;;;2.60;;
43248;SDS011;29216;51.248;6.808;2023-06-14T07:14:23;4.05;;;2.60;;
43248;SDS011;29216;51.248;6.808;2023-06-14T07:16:49;5.28;;;2.50;;
43248;SDS011;29216;51.248;6.808;2023-06-14T07:19:16;5.00;;;2.20;;
43248;SDS011;29216;51.248;6.808;2023-06-14T07:21:42;2.95;;;2.28;;
43248;SDS011;29216;51.248;6.808;2023-06-14T07:24:08;4.85;;;2.40;;
43248;SDS011;29216;51.248;6.808;2023-06-14T07:26:34;3.67;;;2.60;;
43248;SDS011;29216;51.248;6.808;2023-06-14T07:29:00;5.63;;;2.47;;
43248;SDS011;29216;51.248;6.808;2023-06-14T07:31:26;4.22;;;2.22;;
43248;SDS011;29216;51.248;6.808;2023-06-14T07:33:52;5.65;;;2.47;;
43248;SDS011;29216;51.248;6.808;2023-06-14T07:36:18;5.45;;;2.60;;
43248;SDS011;29216;51.248;6.808;2023-06-14T07:38:47;11.23;;;2.47;;
43248;SDS011;29216;51.248;6.808;2023-06-14T07:41:14;6.00;;;2.50;;
43248;SDS011;29216;51.248;6.808;2023-06-14T07:43:40;5.07;;;2.60;;
43248;SDS011;29216;51.248;6.808;2023-06-14T07:46:06;8.75;;;2.80;;
43248;SDS011;29216;51.248;6.808;2023-06-14T07:48:33;2.40;;;2.20;;
43248;SDS011;29216;51.248;6.808;2023-06-14T07:50:59;2.85;;;2.42;;
43248;SDS011;29216;51.248;6.808;2023-06-14T07:53:26;2.72;;;2.33;;
43248;SDS011;29216;51.248;6.808;2023-06-14T07:55:52;5.60;;;2.35;;
43248;SDS011;29216;51.248;6.808;2023-06-14T07:58:18;6.43;;;2.42;;
43248;SDS011;29216;51.248;6.808;2023-06-14T08:00:46;2.50;;;2.30;;
43248;SDS011;29216;51.248;6.808;2023-06-14T08:03:12;4.78;;;2.50;;
43248;SDS011;29216;51.248;6.808;2023-06-14T08:05:39;2.95;;;2.40;;
43248;SDS011;29216;51.248;6.808;2023-06-14T08:08:05;2.50;;;2.17;;
43248;SDS011;29216;51.248;6.808;2023-06-14T08:10:31;4.63;;;2.35;;
43248;SDS011;29216;51.248;6.808;2023-06-14T08:12:57;2.42;;;2.17;;
43248;SDS011;29216;51.248;6.808;2023-06-14T08:15:23;11.88;;;3.00;;
43248;SDS011;29216;51.248;6.808;2023-06-14T08:17:48;3.67;;;2.28;;
43248;SDS011;29216;51.248;6.808;2023-06-14T08:20:19;2.20;;;2.00;;
43248;SDS011;29216;51.248;6.808;2023-06-14T08:22:45;2.80;;;2.08;;
43248;SDS011;29216;51.248;6.808;2023-06-14T08:25:14;4.38;;;2.38;;
43248;SDS011;29216;51.248;6.808;2023-06-14T08:27:40;3.47;;;2.28;;
43248;SDS011;29216;51.248;6.808;2023-06-14T08:30:06;4.45;;;2.20;;
43248;SDS011;29216;51.248;6.808;2023-06-14T08:32:33;3.45;;;2.40;;
43248;SDS011;29216;51.248;6.808;2023-06-14T08:34:59;4.15;;;2.13;;
43248;SDS011;29216;51.248;6.808;2023-06-14T08:37:25;6.03;;;2.30;;
43248;SDS011;29216;51.248;6.808;2023-06-14T08:39:51;4.60;;;2.28;;
43248;SDS011;29216;51.248;6.808;2023-06-14T08:42:17;3.28;;;2.10;;
43248;SDS011;29216;51.248;6.808;2023-06-14T08:44:44;5.03;;;2.47;;
43248;SDS011;29216;51.248;6.808;2023-06-14T08:47:10;4.18;;;2.40;;
43248;SDS011;29216;51.248;6.808;2023-06-14T08:49:38;2.90;;;2.17;;
43248;SDS011;29216;51.248;6.808;2023-06-14T08:52:08;2.55;;;2.33;;
43248;SDS011;29216;51.248;6.808;2023-06-14T08:54:35;3.40;;;2.40;;
43248;SDS011;29216;51.248;6.808;2023-06-14T08:57:08;2.58;;;2.25;;
43248;SDS011;29216;51.248;6.808;2023-06-14T08:59:37;3.17;;;2.17;;
43248;SDS011;29216;51.248;6.808;2023-06-14T09:02:08;2.97;;;2.25;;
43248;SDS011;29216;51.248;6.808;2023-06-14T09:04:39;3.00;;;2.30;;
43248;SDS011;29216;51.248;6.808;2023-06-14T09:07:06;3.67;;;2.05;;
43248;SDS011;29216;51.248;6.808;2023-06-14T09:09:32;4.28;;;2.45;;
43248;SDS011;29216;51.248;6.808;2023-06-14T09:11:59;3.83;;;2.25;;
43248;SDS011;29216;51.248;6.808;2023-06-14T09:14:25;2.60;;;2.03;;
43248;SDS011;29216;51.248;6.808;2023-06-14T09:16:54;3.78;;;2.30;;
43248;SDS011;29216;51.248;6.808;2023-06-14T09:19:21;2.40;;;2.20;;
43248;SDS011;29216;51.248;6.808;2023-06-14T09:21:47;2.30;;;1.90;;
43248;SDS011;29216;51.248;6.808;2023-06-14T09:24:14;3.75;;;1.95;;
43248;SDS011;29216;51.248;6.808;2023-06-14T09:26:40;3.83;;;2.13;;
43248;SDS011;29216;51.248;6.808;2023-06-14T09:29:06;4.38;;;2.35;;
43248;SDS011;29216;51.248;6.808;2023-06-14T09:31:32;4.47;;;2.20;;
43248;SDS011;29216;51.248;6.808;2023-06-14T09:33:58;3.20;;;2.10;;
43248;SDS011;29216;51.248;6.808;2023-06-14T09:36:27;5.68;;;2.20;;
43248;SDS011;29216;51.248;6.808;2023-06-14T09:43:58;3.20;;;2.20;;
43248;SDS011;29216;51.248;6.808;2023-06-14T09:46:26;4.20;;;2.30;;
43248;SDS011;29216;51.248;6.808;2023-06-14T09:48:53;5.72;;;2.50;;
43248;SDS011;29216;51.248;6.808;2023-06-14T09:51:19;5.00;;;2.70;;
43248;SDS011;29216;51.248;6.808;2023-06-14T09:53:51;3.55;;;2.17;;
43248;SDS011;29216;51.248;6.808;2023-06-14T09:56:25;3.25;;;2.30;;
43248;SDS011;29216;51.248;6.808;2023-06-14T09:58:54;2.97;;;2.38;;
43248;SDS011;29216;51.248;6.808;2023-06-14T10:01:21;2.33;;;2.13;;
43248;SDS011;29216;51.248;6.808;2023-06-14T10:03:47;4.85;;;2.35;;
43248;SDS011;29216;51.248;6.808;2023-06-14T10:06:16;11.88;;;2.55;;
43248;SDS011;29216;51.248;6.808;2023-06-14T10:08:42;3.40;;;2.33;;
43248;SDS011;29216;51.248;6.808;2023-06-14T10:11:10;3.40;;;1.90;;
43248;SDS011;29216;51.248;6.808;2023-06-14T10:13:37;3.85;;;2.33;;
43248;SDS011;29216;51.248;6.808;2023-06-14T10:16:12;4.88;;;2.28;;
43248;SDS011;29216;51.248;6.808;2023-06-14T10:18:43;6.05;;;2.40;;
43248;SDS011;29216;51.248;6.808;2023-06-14T10:23:46;4.57;;;2.35;;
43248;SDS011;29216;51.248;6.808;2023-06-14T10:26:20;3.28;;;2.20;;
43248;SDS011;29216;51.248;6.808;2023-06-14T10:31:12;2.53;;;2.20;;
43248;SDS011;29216;51.248;6.808;2023-06-14T10:36:47;5.00;;;2.10;;
43248;SDS011;29216;51.248;6.808;2023-06-14T10:41:26;4.43;;;2.00;;
43248;SDS011;29216;51.248;6.808;2023-06-14T10:44:10;2.00;;;1.90;;
43248;SDS011;29216;51.248;6.808;2023-06-14T10:46:36;3.17;;;2.05;;
43248;SDS011;29216;51.248;6.808;2023-06-14T10:49:02;2.30;;;2.10;;
43248;SDS011;29216;51.248;6.808;2023-06-14T10:51:37;5.50;;;2.28;;
43248;SDS011;29216;51.248;6.808;2023-06-14T10:54:12;5.30;;;2.28;;
43248;SDS011;29216;51.248;6.808;2023-06-14T10:56:45;2.25;;;1.98;;
43248;SDS011;29216;51.248;6.808;2023-06-14T11:01:40;2.50;;;2.33;;
43248;SDS011;29216;51.248;6.808;2023-06-14T11:04:08;4.80;;;2.25;;
43248;SDS011;29216;51.248;6.808;2023-06-14T11:06:47;4.05;;;2.25;;
43248;SDS011;29216;51.248;6.808;2023-06-14T11:12:01;2.80;;;2.20;;
43248;SDS011;29216;51.248;6.808;2023-06-14T11:14:29;4.30;;;2.40;;
43248;SDS011;29216;51.248;6.808;2023-06-14T11:16:56;4.25;;;2.15;;
43248;SDS011;29216;51.248;6.808;2023-06-14T11:19:22;5.22;;;2.20;;
43248;SDS011;29216;51.248;6.808;2023-06-14T11:21:49;4.15;;;2.50;;
43248;SDS011;29216;51.248;6.808;2023-06-14T11:24:15;4.57;;;2.20;;
43248;SDS011;29216;51.248;6.808;2023-06-14T11:26:41;3.22;;;2.20;;
43248;SDS011;29216;51.248;6.808;2023-06-14T11:29:07;4.90;;;2.15;;
43248;SDS011;29216;51.248;6.808;2023-06-14T11:31:33;3.05;;;2.20;;
43248;SDS011;29216;51.248;6.808;2023-06-14T11:33:59;6.18;;;2.30;;
43248;SDS011;29216;51.248;6.808;2023-06-14T11:36:33;2.83;;;2.28;;
43248;SDS011;29216;51.248;6.808;2023-06-14T11:39:04;3.92;;;2.20;;
43248;SDS011;29216;51.248;6.808;2023-06-14T11:41:37;4.82;;;2.30;;
43248;SDS011;29216;51.248;6.808;2023-06-14T11:44:03;5.25;;;2.65;;
43248;SDS011;29216;51.248;6.808;2023-06-14T11:46:29;8.27;;;2.20;;
43248;SDS011;29216;51.248;6.808;2023-06-14T11:48:55;6.20;;;2.20;;
43248;SDS011;29216;51.248;6.808;2023-06-14T11:51:21;2.58;;;2.13;;
43248;SDS011;29216;51.248;6.808;2023-06-14T11:53:47;2.10;;;1.90;;
43248;SDS011;29216;51.248;6.808;2023-06-14T11:56:13;3.17;;;1.85;;
43248;SDS011;29216;51.248;6.808;2023-06-14T11:58:42;2.20;;;2.00;;
43248;SDS011;29216;51.248;6.808;2023-06-14T12:01:08;4.60;;;2.20;;
43248;SDS011;29216;51.248;6.808;2023-06-14T12:03:35;3.28;;;1.90;;
43248;SDS011;29216;51.248;6.808;2023-06-14T12:06:04;2.20;;;2.00;;
43248;SDS011;29216;51.248;6.808;2023-06-14T12:08:36;6.10;;;1.90;;
43248;SDS011;29216;51.248;6.808;2023-06-14T12:11:06;3.03;;;2.30;;
43248;SDS011;29216;51.248;6.808;2023-06-14T12:13:33;3.95;;;2.30;;
43248;SDS011;29216;51.248;6.808;2023-06-14T12:15:59;5.03;;;2.05;;
43248;SDS011;29216;51.248;6.808;2023-06-14T12:18:32;4.80;;;2.03;;
43248;SDS011;29216;51.248;6.808;2023-06-14T12:20:59;2.03;;;1.90;;
43248;SDS011;29216;51.248;6.808;2023-06-14T12:23:47;4.63;;;1.98;;
43248;SDS011;29216;51.248;6.808;2023-06-14T12:26:16;4.63;;;2.17;;
43248;SDS011;29216;51.248;6.808;2023-06-14T12:28:42;5.97;;;2.15;;
43248;SDS011;29216;51.248;6.808;2023-06-14T12:31:09;5.88;;;2.05;;
43248;SDS011;29216;51.248;6.808;2023-06-14T12:33:35;3.25;;;2.10;;
43248;SDS011;29216;51.248;6.808;2023-06-14T12:36:03;1.90;;;1.80;;
43248;SDS011;29216;51.248;6.808;2023-06-14T12:38:29;5.55;;;2.03;;
43248;SDS011;29216;51.248;6.808;2023-06-14T12:40:55;1.90;;;1.80;;
43248;SDS011;29216;51.248;6.808;2023-06-14T12:43:22;2.40;;;2.08;;
43248;SDS011;29216;51.248;6.808;2023-06-14T12:45:48;2.60;;;1.85;;
43248;SDS011;29216;51.248;6.808;2023-06-14T12:48:14;3.58;;;1.80;;
43248;SDS011;29216;51.248;6.808;2023-06-14T12:50:40;2.00;;;1.90;;
43248;SDS011;29216;51.248;6.808;2023-06-14T12:53:06;2.30;;;1.95;;
43248;SDS011;29216;51.248;6.808;2023-06-14T12:55:32;3.20;;;2.17;;
43248;SDS011;29216;51.248;6.808;2023-06-14T12:57:58;4.07;;;2.00;;
43248;SDS011;29216;51.248;6.808;2023-06-14T13:00:25;2.33;;;1.85;;
43248;SDS011;29216;51.248;6.808;2023-06-14T13:02:51;3.38;;;2.03;;
43248;SDS011;29216;51.248;6.808;2023-06-14T13:05:18;5.43;;;2.00;;
43248;SDS011;29216;51.248;6.808;2023-06-14T13:07:44;2.75;;;2.03;;
43248;SDS011;29216;51.248;6.808;2023-06-14T13:10:10;5.22;;;2.00;;
43248;SDS011;29216;51.248;6.808;2023-06-14T13:12:36;6.57;;;2.08;;
43248;SDS011;29216;51.248;6.808;2023-06-14T13:15:02;3.70;;;2.28;;
43248;SDS011;29216;51.248;6.808;2023-06-14T13:17:28;3.05;;;2.28;;
43248;SDS011;29216;51.248;6.808;2023-06-14T13:19:54;7.30;;;2.38;;
43248;SDS011;29216;51.248;6.808;2023-06-14T13:22:20;2.20;;;2.00;;
43248;SDS011;29216;51.248;6.808;2023-06-14T13:24:46;4.82;;;2.55;;
43248;SDS011;29216;51.248;6.808;2023-06-14T13:27:13;3.05;;;2.00;;
43248;SDS011;29216;51.248;6.808;2023-06-14T13:29:39;3.13;;;2.13;;
43248;SDS011;29216;51.248;6.808;2023-06-14T13:32:05;7.35;;;2.20;;
43248;SDS011;29216;51.248;6.808;2023-06-14T13:34:31;5.53;;;2.10;;
43248;SDS011;29216;51.248;6.808;2023-06-14T13:36:57;4.68;;;2.33;;
43248;SDS011;29216;51.248;6.808;2023-06-14T13:39:24;6.95;;;2.50;;
43248;SDS011;29216;51.248;6.808;2023-06-14T13:41:50;3.22;;;2.13;;
43248;SDS011;29216;51.248;6.808;2023-06-14T13:44:16;4.07;;;2.50;;
43248;SDS011;29216;51.248;6.808;2023-06-14T13:46:46;7.72;;;2.40;;
43248;SDS011;29216;51.248;6.808;2023-06-14T13:49:12;6.65;;;2.40;;
43248;SDS011;29216;51.248;6.808;2023-06-14T13:51:38;5.20;;;2.30;;
43248;SDS011;29216;51.248;6.808;2023-06-14T13:54:04;5.10;;;2.40;;
43248;SDS011;29216;51.248;6.808;2023-06-14T13:56:30;3.17;;;2.47;;
43248;SDS011;29216;51.248;6.808;2023-06-14T13:58:56;8.23;;;2.42;;
43248;SDS011;29216;51.248;6.808;2023-06-14T14:01:22;3.65;;;2.33;;
43248;SDS011;29216;51.248;6.808;2023-06-14T14:03:49;3.05;;;2.05;;
43248;SDS011;29216;51.248;6.808;2023-06-14T14:06:15;3.47;;;2.33;;
43248;SDS011;29216;51.248;6.808;2023-06-14T14:08:42;10.25;;;2.72;;
43248;SDS011;29216;51.248;6.808;2023-06-14T14:11:09;4.70;;;2.45;;
43248;SDS011;29216;51.248;6.808;2023-06-14T14:13:35;5.85;;;2.78;;
43248;SDS011;29216;51.248;6.808;2023-06-14T14:16:01;4.00;;;2.60;;
43248;SDS011;29216;51.248;6.808;2023-06-14T14:18:28;3.28;;;2.45;;
43248;SDS011;29216;51.248;6.808;2023-06-14T14:20:54;2.55;;;2.10;;
43248;SDS011;29216;51.248;6.808;2023-06-14T14:23:21;3.22;;;2.22;;
43248;SDS011;29216;51.248;6.808;2023-06-14T14:25:47;4.13;;;2.40;;
43248;SDS011;29216;51.248;6.808;2023-06-14T14:28:13;6.60;;;2.90;;
43248;SDS011;29216;51.248;6.808;2023-06-14T14:30:41;2.28;;;2.08;;
43248;SDS011;29216;51.248;6.808;2023-06-14T14:33:07;5.40;;;2.40;;
43248;SDS011;29216;51.248;6.808;2023-06-14T14:35:33;4.90;;;2.20;;
43248;SDS011;29216;51.248;6.808;2023-06-14T14:37:59;5.78;;;2.30;;
43248;SDS011;29216;51.248;6.808;2023-06-14T14:40:25;4.47;;;2.20;;
43248;SDS011;29216;51.248;6.808;2023-06-14T14:42:51;7.20;;;2.60;;
43248;SDS011;29216;51.248;6.808;2023-06-14T14:45:17;6.22;;;2.30;;
43248;SDS011;29216;51.248;6.808;2023-06-14T14:47:43;2.63;;;2.42;;
43248;SDS011;29216;51.248;6.808;2023-06-14T14:50:10;3.13;;;2.42;;
43248;SDS011;29216;51.248;6.808;2023-06-14T14:52:36;2.95;;;2.45;;
43248;SDS011;29216;51.248;6.808;2023-06-14T14:55:02;4.55;;;2.63;;
43248;SDS011;29216;51.248;6.808;2023-06-14T14:57:28;4.70;;;2.50;;
43248;SDS011;29216;51.248;6.808;2023-06-14T14:59:55;7.93;;;2.47;;
43248;SDS011;29216;51.248;6.808;2023-06-14T15:02:21;5.38;;;2.30;;
43248;SDS011;29216;51.248;6.808;2023-06-14T15:04:48;3.60;;;2.40;;
43248;SDS011;29216;51.248;6.808;2023-06-14T15:07:15;3.63;;;2.10;;